createdAt,value
2017-09-04T00:02:12.672Z,11.60
2017-09-04T00:04:40.411Z,11.70
2017-09-04T00:07:08.098Z,11.60
2017-09-04T00:09:35.836Z,11.40
2017-09-04T00:12:03.507Z,11.30
2017-09-04T00:14:31.202Z,11.40
2017-09-04T00:16:58.942Z,11.30
2017-09-04T00:19:26.603Z,11.40
2017-09-04T00:21:54.355Z,11.40
2017-09-04T00:24:22.023Z,11.50
2017-09-04T00:26:49.742Z,11.60
2017-09-04T00:29:17.415Z,11.60
2017-09-04T00:31:45.156Z,11.50
2017-09-04T00:34:12.892Z,11.40
2017-09-04T00:36:40.611Z,11.10
2017-09-04T00:39:08.327Z,10.80
2017-09-04T00:41:36.003Z,10.80
2017-09-04T00:44:03.811Z,10.80
2017-09-04T00:46:31.479Z,10.90
2017-09-04T00:48:59.163Z,11.00
2017-09-04T00:51:26.879Z,11.10
2017-09-04T00:53:54.564Z,11.20
2017-09-04T00:56:22.316Z,10.80
2017-09-04T00:58:49.987Z,10.80
2017-09-04T01:01:17.732Z,10.90
2017-09-04T01:03:45.402Z,11.20
2017-09-04T01:06:13.216Z,11.10
2017-09-04T01:08:40.912Z,11.00
2017-09-04T01:11:08.590Z,10.90
2017-09-04T01:13:36.337Z,10.80
2017-09-04T01:16:04.076Z,10.70
2017-09-04T01:18:31.794Z,10.90
2017-09-04T01:20:59.467Z,10.90
2017-09-04T01:23:27.184Z,10.60
2017-09-04T01:25:54.841Z,10.60
2017-09-04T01:28:22.563Z,10.80
2017-09-04T01:30:50.235Z,10.90
2017-09-04T01:33:17.986Z,10.80
2017-09-04T01:35:45.643Z,10.70
2017-09-04T01:38:13.400Z,10.70
2017-09-04T01:40:41.109Z,10.50
2017-09-04T01:43:08.803Z,10.40
2017-09-04T01:45:36.539Z,10.30
2017-09-04T01:48:04.209Z,10.30
2017-09-04T01:50:31.946Z,10.50
2017-09-04T01:52:59.607Z,10.60
2017-09-04T01:55:27.263Z,10.60
2017-09-04T01:57:54.990Z,10.60
2017-09-04T02:00:22.723Z,10.50
2017-09-04T02:02:50.395Z,10.40
2017-09-04T02:05:18.068Z,10.40
2017-09-04T02:07:45.808Z,10.50
2017-09-04T02:10:13.572Z,10.60
2017-09-04T02:12:42.061Z,10.60
2017-09-04T02:15:09.729Z,10.60
2017-09-04T02:17:37.387Z,10.40
2017-09-04T02:20:05.115Z,10.50
2017-09-04T02:22:32.776Z,10.20
2017-09-04T02:25:00.495Z,10.30
2017-09-04T02:27:28.941Z,10.10
2017-09-04T02:29:57.480Z,10.30
2017-09-04T02:32:25.151Z,10.20
2017-09-04T02:34:52.880Z,10.20
2017-09-04T02:37:20.605Z,10.20
2017-09-04T02:39:48.329Z,10.30
2017-09-04T02:42:15.996Z,10.30
2017-09-04T02:44:43.717Z,10.00
2017-09-04T02:47:11.384Z,10.00
2017-09-04T02:49:39.119Z,10.10
2017-09-04T02:52:06.788Z,10.30
2017-09-04T02:54:34.455Z,10.20
2017-09-04T02:57:02.182Z,10.10
2017-09-04T02:59:29.848Z,10.20
2017-09-04T03:01:57.604Z,10.30
2017-09-04T03:04:25.268Z,10.10
2017-09-04T03:06:53.003Z,10.30
2017-09-04T03:09:20.671Z,10.20
2017-09-04T03:11:48.437Z,10.30
2017-09-04T03:14:16.179Z,10.20
2017-09-04T03:16:43.915Z,10.40
2017-09-04T03:19:11.631Z,10.30
2017-09-04T03:21:39.400Z,10.10
2017-09-04T03:24:07.353Z,10.10
2017-09-04T03:26:35.086Z,10.10
2017-09-04T03:29:02.868Z,10.20
2017-09-04T03:31:30.583Z,10.10
2017-09-04T03:33:58.368Z,10.10
2017-09-04T03:36:26.081Z,10.10
2017-09-04T03:38:53.818Z,10.30
2017-09-04T03:41:21.692Z,10.10
2017-09-04T03:43:49.473Z,9.90
2017-09-04T03:46:17.280Z,10.00
2017-09-04T03:48:45.079Z,10.10
2017-09-04T03:51:12.887Z,10.20
2017-09-04T03:53:40.652Z,10.10
2017-09-04T03:56:08.408Z,10.10
2017-09-04T03:58:36.176Z,10.00
2017-09-04T04:01:03.929Z,9.90
2017-09-04T04:03:31.660Z,9.80
2017-09-04T04:05:59.430Z,9.70
2017-09-04T04:08:27.148Z,9.80
2017-09-04T04:10:54.927Z,9.90
2017-09-04T04:13:22.669Z,9.90
2017-09-04T04:15:50.471Z,9.80
2017-09-04T04:18:18.147Z,9.70
2017-09-04T04:20:45.875Z,9.50
2017-09-04T04:23:13.583Z,9.70
2017-09-04T04:25:41.231Z,9.80
2017-09-04T04:28:08.959Z,10.10
2017-09-04T04:30:36.679Z,10.00
2017-09-04T04:33:04.391Z,10.00
2017-09-04T04:35:32.064Z,10.10
2017-09-04T04:37:59.786Z,10.00
2017-09-04T04:40:27.448Z,9.90
2017-09-04T04:42:55.149Z,9.80
2017-09-04T04:45:22.808Z,9.90
2017-09-04T04:47:50.516Z,9.90
2017-09-04T04:50:18.196Z,10.00
2017-09-04T04:52:45.899Z,10.10
2017-09-04T04:55:13.598Z,10.10
2017-09-04T04:57:41.308Z,10.00
2017-09-04T05:00:08.980Z,10.00
2017-09-04T05:02:37.814Z,10.00
2017-09-04T05:05:05.480Z,10.00
2017-09-04T05:07:33.188Z,10.00
2017-09-04T05:10:00.920Z,9.90
2017-09-04T05:12:28.625Z,9.90
2017-09-04T05:14:56.285Z,9.90
2017-09-04T05:17:23.993Z,9.90
2017-09-04T05:19:51.653Z,9.80
2017-09-04T05:22:19.377Z,9.90
2017-09-04T05:24:47.040Z,10.00
2017-09-04T05:27:14.701Z,10.00
2017-09-04T05:29:42.406Z,10.10
2017-09-04T05:32:10.073Z,10.20
2017-09-04T05:34:37.785Z,10.20
2017-09-04T05:37:05.453Z,10.10
2017-09-04T05:39:33.146Z,10.20
2017-09-04T05:42:00.811Z,10.40
2017-09-04T05:44:28.515Z,10.50
2017-09-04T05:46:56.346Z,10.70
2017-09-04T05:49:24.058Z,10.80
2017-09-04T05:51:51.724Z,10.70
2017-09-04T05:54:19.422Z,10.70
2017-09-04T05:56:47.079Z,10.70
2017-09-04T05:59:14.784Z,10.80
2017-09-04T06:01:42.487Z,10.90
2017-09-04T06:04:10.192Z,10.80
2017-09-04T06:06:37.861Z,10.50
2017-09-04T06:09:05.569Z,10.40
2017-09-04T06:11:33.285Z,10.50
2017-09-04T06:14:01.004Z,10.80
2017-09-04T06:16:28.702Z,11.10
2017-09-04T06:18:56.413Z,11.20
2017-09-04T06:21:24.088Z,11.50
2017-09-04T06:23:51.821Z,11.80
2017-09-04T06:26:19.501Z,12.00
2017-09-04T06:28:47.159Z,12.00
2017-09-04T06:31:14.860Z,12.10
2017-09-04T06:33:42.521Z,12.20
2017-09-04T06:36:10.232Z,12.20
2017-09-04T06:38:37.896Z,12.20
2017-09-04T06:41:05.595Z,12.40
2017-09-04T06:43:33.261Z,12.50
2017-09-04T06:46:00.968Z,12.70
2017-09-04T06:48:28.635Z,12.80
2017-09-04T06:50:56.385Z,12.80
2017-09-04T06:53:24.055Z,12.90
2017-09-04T06:55:51.764Z,12.80
2017-09-04T06:58:19.432Z,13.00
2017-09-04T07:00:47.135Z,12.90
2017-09-04T07:03:14.799Z,13.00
2017-09-04T07:05:42.504Z,13.20
2017-09-04T07:08:10.174Z,13.20
2017-09-04T07:10:37.883Z,13.10
2017-09-04T07:13:05.595Z,13.00
2017-09-04T07:15:33.309Z,13.20
2017-09-04T07:18:00.972Z,13.10
2017-09-04T07:20:28.674Z,13.00
2017-09-04T07:22:56.338Z,13.30
2017-09-04T07:25:24.053Z,13.50
2017-09-04T07:27:51.727Z,13.60
2017-09-04T07:30:19.387Z,14.20
2017-09-04T07:32:47.084Z,14.60
2017-09-04T07:35:14.748Z,14.90
2017-09-04T07:37:42.450Z,15.20
2017-09-04T07:40:10.127Z,15.30
2017-09-04T07:42:37.831Z,15.60
2017-09-04T07:45:05.488Z,15.50
2017-09-04T07:47:33.209Z,15.40
2017-09-04T07:50:00.895Z,15.80
2017-09-04T07:52:28.602Z,16.00
2017-09-04T07:54:56.270Z,16.30
2017-09-04T07:57:23.996Z,16.40
2017-09-04T07:59:51.670Z,16.40
2017-09-04T08:02:19.384Z,16.40
2017-09-04T08:04:47.072Z,16.50
2017-09-04T08:07:14.788Z,16.90
2017-09-04T08:09:42.458Z,17.10
2017-09-04T08:12:10.163Z,17.20
2017-09-04T08:14:37.861Z,17.40
2017-09-04T08:17:05.571Z,17.50
2017-09-04T08:19:33.232Z,17.50
2017-09-04T08:22:00.934Z,17.60
2017-09-04T08:24:28.602Z,17.60
2017-09-04T08:26:56.317Z,17.90
2017-09-04T08:29:23.978Z,18.10
2017-09-04T08:31:51.636Z,18.30
2017-09-04T08:34:19.354Z,18.40
2017-09-04T08:36:47.011Z,18.20
2017-09-04T08:39:14.724Z,18.60
2017-09-04T08:41:42.392Z,18.90
2017-09-04T08:44:10.911Z,19.20
2017-09-04T08:46:38.577Z,19.10
2017-09-04T08:49:06.288Z,19.00
2017-09-04T08:51:33.968Z,19.10
2017-09-04T08:54:01.707Z,19.20
2017-09-04T08:56:29.371Z,19.30
2017-09-04T08:58:57.088Z,19.50
2017-09-04T09:01:24.815Z,19.50
2017-09-04T09:03:52.519Z,19.70
2017-09-04T09:06:20.187Z,19.80
2017-09-04T09:08:47.878Z,19.90
2017-09-04T09:11:15.539Z,20.00
2017-09-04T09:13:43.254Z,20.00
2017-09-04T09:16:10.917Z,20.10
2017-09-04T09:18:38.624Z,20.00
2017-09-04T09:21:06.296Z,19.90
2017-09-04T09:23:34.030Z,20.40
2017-09-04T09:26:01.731Z,20.50
2017-09-04T09:28:29.474Z,20.70
2017-09-04T09:30:57.160Z,20.80
2017-09-04T09:33:24.893Z,20.90
2017-09-04T09:35:52.556Z,21.20
2017-09-04T09:38:20.216Z,21.30
2017-09-04T09:40:47.928Z,21.20
2017-09-04T09:43:15.584Z,21.30
2017-09-04T09:45:43.295Z,21.50
2017-09-04T09:48:10.963Z,21.50
2017-09-04T09:50:38.722Z,21.50
2017-09-04T09:53:06.423Z,21.70
2017-09-04T09:55:34.166Z,21.60
2017-09-04T09:58:01.868Z,21.80
2017-09-04T10:00:29.660Z,22.00
2017-09-04T10:02:57.371Z,22.10
2017-09-04T10:05:25.116Z,21.90
2017-09-04T10:07:52.815Z,22.00
2017-09-04T10:10:20.559Z,22.40
2017-09-04T10:12:48.301Z,22.40
2017-09-04T10:15:16.058Z,22.50
2017-09-04T10:17:43.762Z,22.50
2017-09-04T10:20:11.511Z,22.40
2017-09-04T10:22:39.219Z,22.40
2017-09-04T10:25:06.967Z,22.30
2017-09-04T10:27:34.669Z,22.10
2017-09-04T10:30:02.420Z,22.20
2017-09-04T10:32:30.123Z,22.40
2017-09-04T10:34:57.871Z,22.60
2017-09-04T10:37:25.579Z,22.60
2017-09-04T10:39:53.278Z,22.50
2017-09-04T10:42:21.028Z,22.30
2017-09-04T10:44:48.740Z,22.80
2017-09-04T10:47:16.493Z,22.90
2017-09-04T10:49:44.191Z,22.80
2017-09-04T10:52:11.935Z,23.30
2017-09-04T10:54:39.641Z,23.60
2017-09-04T10:57:07.347Z,23.90
2017-09-04T10:59:35.051Z,23.90
2017-09-04T11:02:02.776Z,24.10
2017-09-04T11:04:30.463Z,24.30
2017-09-04T11:06:58.167Z,24.40
2017-09-04T11:09:25.835Z,24.40
2017-09-04T11:11:53.581Z,24.50
2017-09-04T11:14:21.289Z,24.40
2017-09-04T11:16:49.043Z,24.30
2017-09-04T11:19:16.756Z,24.80
2017-09-04T11:21:44.501Z,24.30
2017-09-04T11:24:12.226Z,23.80
2017-09-04T11:26:39.984Z,23.40
2017-09-04T11:29:07.693Z,23.40
2017-09-04T11:31:35.437Z,23.60
2017-09-04T11:34:03.135Z,24.20
2017-09-04T11:36:30.899Z,24.10
2017-09-04T11:38:58.560Z,24.40
2017-09-04T11:41:27.060Z,24.70
2017-09-04T11:43:54.769Z,24.60
2017-09-04T11:46:22.436Z,24.70
2017-09-04T11:48:50.145Z,23.80
2017-09-04T11:51:17.864Z,23.50
2017-09-04T11:53:45.588Z,23.90
2017-09-04T11:56:13.263Z,22.90
2017-09-04T11:58:40.973Z,22.60
2017-09-04T12:01:08.686Z,23.20
2017-09-04T12:03:36.437Z,24.10
2017-09-04T12:06:04.107Z,24.50
2017-09-04T12:08:31.843Z,24.90
2017-09-04T12:10:59.550Z,25.00
2017-09-04T12:13:27.255Z,24.70
2017-09-04T12:15:54.928Z,25.00
2017-09-04T12:18:22.641Z,25.10
2017-09-04T12:20:50.356Z,25.50
2017-09-04T12:23:18.080Z,25.50
2017-09-04T12:25:46.034Z,25.20
2017-09-04T12:28:13.783Z,24.90
2017-09-04T12:30:41.482Z,24.20
2017-09-04T12:33:09.228Z,23.90
2017-09-04T12:35:36.936Z,23.60
2017-09-04T12:38:04.695Z,23.70
2017-09-04T12:40:32.416Z,24.50
2017-09-04T12:43:00.184Z,24.80
2017-09-04T12:45:27.857Z,24.70
2017-09-04T12:47:55.512Z,24.30
2017-09-04T12:50:23.260Z,24.50
2017-09-04T12:52:50.940Z,24.90
2017-09-04T12:55:18.646Z,24.50
2017-09-04T12:57:46.308Z,24.40
2017-09-04T13:00:14.019Z,24.00
2017-09-04T13:02:41.683Z,24.60
2017-09-04T13:05:09.399Z,24.90
2017-09-04T13:07:46.997Z,25.30
2017-09-04T13:10:20.448Z,25.40
2017-09-04T13:12:48.148Z,25.70
2017-09-04T13:18:22.206Z,25.40
2017-09-04T13:20:55.537Z,25.70
2017-09-04T13:23:27.261Z,25.70
2017-09-04T13:29:03.296Z,25.80
2017-09-04T13:31:37.689Z,25.90
2017-09-04T13:34:21.200Z,25.90
2017-09-04T13:40:11.413Z,25.90
2017-09-04T13:42:49.946Z,25.40
2017-09-04T13:45:23.315Z,25.80
2017-09-04T13:47:56.756Z,25.90
2017-09-04T13:53:33.643Z,25.70
2017-09-04T13:59:22.817Z,25.50
2017-09-04T14:02:10.221Z,25.50
2017-09-04T14:04:53.751Z,25.50
2017-09-04T14:10:26.125Z,25.80
2017-09-04T14:12:59.472Z,25.80
2017-09-04T14:18:30.894Z,26.10
2017-09-04T14:20:58.603Z,25.80
2017-09-04T14:23:26.313Z,25.90
2017-09-04T14:25:54.060Z,26.10
2017-09-04T14:28:21.774Z,25.90
2017-09-04T14:30:49.529Z,26.40
2017-09-04T14:33:17.234Z,26.20
2017-09-04T14:35:44.995Z,26.10
2017-09-04T14:38:12.701Z,25.90
2017-09-04T14:40:55.301Z,25.50
2017-09-04T14:43:28.524Z,25.40
2017-09-04T14:45:59.197Z,25.30
2017-09-04T14:48:45.652Z,25.30
2017-09-04T14:51:13.398Z,25.40
2017-09-04T14:53:41.102Z,25.50
2017-09-04T14:56:08.871Z,25.40
2017-09-04T14:58:36.588Z,24.90
2017-09-04T15:01:04.243Z,24.70
2017-09-04T15:03:31.987Z,24.60
2017-09-04T15:05:59.684Z,24.40
2017-09-04T15:08:27.436Z,23.90
2017-09-04T15:10:55.140Z,23.20
2017-09-04T15:13:22.888Z,23.30
2017-09-04T15:15:50.596Z,23.10
2017-09-04T15:18:18.344Z,23.20
2017-09-04T15:20:46.048Z,23.50
2017-09-04T15:23:13.798Z,23.50
2017-09-04T15:25:41.536Z,23.30
2017-09-04T15:28:10.048Z,23.80
2017-09-04T15:30:37.757Z,23.70
2017-09-04T15:33:05.508Z,24.00
2017-09-04T15:35:33.216Z,24.10
2017-09-04T15:38:00.961Z,24.10
2017-09-04T15:40:28.675Z,24.30
2017-09-04T15:42:56.423Z,24.30
2017-09-04T15:45:24.140Z,24.40
2017-09-04T15:47:51.884Z,24.10
2017-09-04T15:50:19.585Z,24.10
2017-09-04T15:52:47.359Z,23.90
2017-09-04T15:55:15.072Z,23.60
2017-09-04T15:57:42.780Z,23.50
2017-09-04T16:00:10.555Z,23.20
2017-09-04T16:02:38.280Z,23.30
2017-09-04T16:05:06.032Z,23.30
2017-09-04T16:07:33.732Z,23.40
2017-09-04T16:10:01.484Z,23.20
2017-09-04T16:12:39.091Z,23.10
2017-09-04T16:15:09.644Z,22.90
2017-09-04T16:17:43.041Z,22.80
2017-09-04T16:20:14.311Z,22.80
2017-09-04T16:22:51.905Z,22.60
2017-09-04T16:25:20.556Z,22.50
2017-09-04T16:27:50.163Z,22.40
2017-09-04T16:33:24.481Z,22.10
2017-09-04T16:35:55.864Z,22.10
2017-09-04T16:38:38.399Z,22.10
2017-09-04T16:41:22.029Z,22.10
2017-09-04T16:43:53.204Z,22.10
2017-09-04T16:46:22.745Z,22.00
2017-09-04T16:48:52.975Z,21.90
2017-09-04T16:51:22.659Z,21.90
2017-09-04T16:53:55.187Z,21.60
2017-09-04T16:56:41.584Z,21.50
2017-09-04T16:59:09.291Z,21.40
2017-09-04T17:01:37.044Z,21.30
2017-09-04T17:04:04.748Z,21.10
2017-09-04T17:06:32.499Z,20.90
2017-09-04T17:09:15.044Z,20.80
2017-09-04T17:11:44.587Z,20.50
2017-09-04T17:14:12.287Z,20.30
2017-09-04T17:16:40.974Z,20.20
2017-09-04T17:19:08.685Z,20.10
2017-09-04T17:21:51.283Z,20.10
2017-09-04T17:24:21.581Z,20.00
2017-09-04T17:26:49.336Z,19.90
2017-09-04T17:29:17.052Z,19.70
2017-09-04T17:31:44.804Z,19.60
2017-09-04T17:34:12.509Z,19.50
2017-09-04T17:36:40.250Z,19.50
2017-09-04T17:39:08.724Z,19.50
2017-09-04T17:41:36.484Z,19.50
2017-09-04T17:44:04.965Z,19.20
2017-09-04T17:46:32.716Z,19.20
2017-09-04T17:49:00.430Z,19.20
2017-09-04T17:51:28.187Z,19.20
2017-09-04T17:53:55.896Z,19.10
2017-09-04T17:56:23.599Z,19.20
2017-09-04T17:58:51.341Z,19.10
2017-09-04T18:01:19.053Z,19.10
2017-09-04T18:03:46.806Z,18.90
2017-09-04T18:06:14.474Z,18.90
2017-09-04T18:08:42.176Z,18.90
2017-09-04T18:11:09.838Z,19.00
2017-09-04T18:13:37.532Z,19.00
2017-09-04T18:16:05.237Z,19.00
2017-09-04T18:18:32.976Z,19.00
2017-09-04T18:21:00.680Z,19.20
2017-09-04T18:23:28.426Z,19.00
2017-09-04T18:25:56.132Z,19.10
2017-09-04T18:28:23.849Z,19.10
2017-09-04T18:30:51.548Z,19.20
2017-09-04T18:33:19.339Z,19.30
2017-09-04T18:35:47.020Z,19.10
2017-09-04T18:38:14.724Z,19.10
2017-09-04T18:40:42.417Z,19.00
2017-09-04T18:43:10.156Z,18.90
2017-09-04T18:45:37.881Z,18.90
2017-09-04T18:48:05.636Z,18.80
2017-09-04T18:50:33.342Z,18.60
2017-09-04T18:53:01.097Z,18.60
2017-09-04T18:55:28.800Z,18.40
2017-09-04T18:57:56.504Z,18.30
2017-09-04T19:00:24.250Z,18.10
2017-09-04T19:02:51.931Z,18.20
2017-09-04T19:05:19.644Z,18.00
2017-09-04T19:07:47.412Z,18.00
2017-09-04T19:10:15.128Z,17.90
2017-09-04T19:12:42.801Z,17.80
2017-09-04T19:15:10.558Z,17.90
2017-09-04T19:17:38.279Z,17.60
2017-09-04T19:20:06.044Z,17.50
2017-09-04T19:22:33.747Z,17.40
2017-09-04T19:25:01.521Z,17.30
2017-09-04T19:27:29.237Z,17.20
2017-09-04T19:29:57.004Z,17.20
2017-09-04T19:32:24.720Z,17.10
2017-09-04T19:34:52.474Z,17.10
2017-09-04T19:37:20.171Z,17.10
2017-09-04T19:39:47.885Z,17.00
2017-09-04T19:42:15.593Z,16.90
2017-09-04T19:44:43.309Z,16.80
2017-09-04T19:47:11.032Z,16.70
2017-09-04T19:49:38.737Z,16.70
2017-09-04T19:52:06.533Z,16.90
2017-09-04T19:54:34.312Z,17.00
2017-09-04T19:57:02.052Z,16.90
2017-09-04T19:59:29.830Z,17.10
2017-09-04T20:01:57.499Z,17.20
2017-09-04T20:04:25.201Z,17.20
2017-09-04T20:06:52.947Z,17.20
2017-09-04T20:09:20.648Z,16.90
2017-09-04T20:11:48.405Z,16.90
2017-09-04T20:14:16.872Z,16.80
2017-09-04T20:16:44.615Z,16.80
2017-09-04T20:19:12.319Z,16.60
2017-09-04T20:21:40.069Z,16.90
2017-09-04T20:24:07.833Z,17.00
2017-09-04T20:26:35.561Z,16.90
2017-09-04T20:29:03.286Z,17.00
2017-09-04T20:31:31.000Z,16.90
2017-09-04T20:33:58.659Z,16.70
2017-09-04T20:36:26.374Z,16.60
2017-09-04T20:38:54.075Z,16.10
2017-09-04T20:41:21.788Z,16.00
2017-09-04T20:43:49.504Z,16.10
2017-09-04T20:46:17.208Z,16.20
2017-09-04T20:48:44.877Z,16.50
2017-09-04T20:51:12.619Z,16.80
2017-09-04T20:53:40.299Z,16.80
2017-09-04T20:56:07.999Z,16.60
2017-09-04T20:58:35.712Z,16.50
2017-09-04T21:01:03.471Z,16.50
2017-09-04T21:03:31.171Z,16.60
2017-09-04T21:05:58.861Z,16.60
2017-09-04T21:08:26.611Z,16.60
2017-09-04T21:10:54.314Z,16.60
2017-09-04T21:13:22.054Z,16.50
2017-09-04T21:15:49.765Z,16.50
2017-09-04T21:18:17.508Z,16.60
2017-09-04T21:20:45.214Z,16.60
2017-09-04T21:23:12.956Z,16.50
2017-09-04T21:25:40.655Z,16.70
2017-09-04T21:28:08.404Z,16.50
2017-09-04T21:30:36.109Z,16.60
2017-09-04T21:33:03.855Z,16.60
2017-09-04T21:35:31.559Z,16.50
2017-09-04T21:37:59.299Z,16.40
2017-09-04T21:40:26.998Z,16.50
2017-09-04T21:42:54.744Z,16.40
2017-09-04T21:45:22.450Z,16.40
2017-09-04T21:47:50.163Z,16.30
2017-09-04T21:50:17.819Z,16.50
2017-09-04T21:52:45.539Z,16.70
2017-09-04T21:55:13.212Z,16.80
2017-09-04T21:57:40.915Z,16.60
2017-09-04T22:00:08.613Z,16.70
2017-09-04T22:02:36.332Z,16.80
2017-09-04T22:05:04.026Z,16.80
2017-09-04T22:07:31.713Z,16.70
2017-09-04T22:09:59.422Z,16.80
2017-09-04T22:12:27.081Z,16.50
2017-09-04T22:14:54.793Z,16.20
2017-09-04T22:17:22.465Z,16.00
2017-09-04T22:19:50.163Z,16.10
2017-09-04T22:22:17.819Z,16.10
2017-09-04T22:24:45.572Z,16.30
2017-09-04T22:27:13.279Z,16.30
2017-09-04T22:29:41.023Z,16.30
2017-09-04T22:32:08.735Z,16.40
2017-09-04T22:34:36.489Z,16.50
2017-09-04T22:37:04.199Z,16.70
2017-09-04T22:39:31.948Z,16.70
2017-09-04T22:41:59.612Z,16.70
2017-09-04T22:44:27.315Z,16.70
2017-09-04T22:46:55.025Z,16.70
2017-09-04T22:49:22.772Z,16.70
2017-09-04T22:51:50.476Z,16.70
2017-09-04T22:54:18.220Z,16.70
2017-09-04T22:56:46.692Z,16.60
2017-09-04T22:59:16.049Z,16.60
2017-09-04T23:01:43.748Z,16.70
2017-09-04T23:04:11.492Z,16.70
2017-09-04T23:06:39.193Z,16.80
2017-09-04T23:09:06.958Z,16.70
2017-09-04T23:11:34.659Z,16.60
2017-09-04T23:14:02.336Z,16.60
2017-09-04T23:16:30.080Z,16.80
2017-09-04T23:18:57.743Z,16.80
2017-09-04T23:21:25.495Z,16.70
2017-09-04T23:23:53.191Z,16.60
2017-09-04T23:26:20.935Z,16.60
2017-09-04T23:28:48.601Z,16.50
2017-09-04T23:31:16.340Z,16.60
2017-09-04T23:33:44.044Z,16.50
2017-09-04T23:36:11.758Z,16.50
2017-09-04T23:38:39.464Z,16.50
2017-09-04T23:41:07.222Z,16.50
2017-09-04T23:43:34.929Z,16.40
2017-09-04T23:46:02.636Z,16.20
2017-09-04T23:48:30.304Z,16.40
2017-09-04T23:50:58.788Z,16.30
2017-09-04T23:53:26.444Z,16.30
2017-09-04T23:55:54.148Z,16.30
2017-09-04T23:58:21.851Z,16.50
